sensor_id;sensor_type;location;lat;lon;timestamp;P1;durP1;ratioP1;P2;durP2;ratioP2
19087;SDS011;9676;50.916;13.352;2023-03-01T00:02:33;16.77;;;13.10;;
19087;SDS011;9676;50.916;13.352;2023-03-01T00:05:23;15.23;;;13.63;;
19087;SDS011;9676;50.916;13.352;2023-03-01T00:08:12;14.20;;;12.70;;
19087;SDS011;9676;50.916;13.352;2023-03-01T00:11:02;13.70;;;12.27;;
19087;SDS011;9676;50.916;13.352;2023-03-01T00:13:56;14.07;;;12.67;;
19087;SDS011;9676;50.916;13.352;2023-03-01T00:16:48;14.00;;;12.60;;
19087;SDS011;9676;50.916;13.352;2023-03-01T00:19:37;15.20;;;13.60;;
19087;SDS011;9676;50.916;13.352;2023-03-01T00:22:26;14.37;;;12.87;;
19087;SDS011;9676;50.916;13.352;2023-03-01T00:25:16;13.80;;;12.40;;
19087;SDS011;9676;50.916;13.352;2023-03-01T00:28:05;14.13;;;12.67;;
19087;SDS011;9676;50.916;13.352;2023-03-01T00:30:56;13.73;;;12.43;;
19087;SDS011;9676;50.916;13.352;2023-03-01T00:33:52;14.73;;;12.40;;
19087;SDS011;9676;50.916;13.352;2023-03-01T00:36:44;13.73;;;12.33;;
19087;SDS011;9676;50.916;13.352;2023-03-01T00:39:33;13.33;;;12.03;;
19087;SDS011;9676;50.916;13.352;2023-03-01T00:42:22;14.30;;;12.90;;
19087;SDS011;9676;50.916;13.352;2023-03-01T00:45:12;13.20;;;11.90;;
19087;SDS011;9676;50.916;13.352;2023-03-01T00:48:03;13.40;;;12.03;;
19087;SDS011;9676;50.916;13.352;2023-03-01T00:50:53;14.10;;;12.70;;
19087;SDS011;9676;50.916;13.352;2023-03-01T00:53:43;13.57;;;12.17;;
19087;SDS011;9676;50.916;13.352;2023-03-01T00:56:33;13.73;;;12.33;;
19087;SDS011;9676;50.916;13.352;2023-03-01T00:59:22;14.20;;;12.70;;
19087;SDS011;9676;50.916;13.352;2023-03-01T01:02:12;13.97;;;12.63;;
19087;SDS011;9676;50.916;13.352;2023-03-01T01:05:02;13.30;;;12.00;;
19087;SDS011;9676;50.916;13.352;2023-03-01T01:07:53;13.70;;;12.40;;
19087;SDS011;9676;50.916;13.352;2023-03-01T01:10:43;15.90;;;12.33;;
19087;SDS011;9676;50.916;13.352;2023-03-01T01:13:32;16.70;;;12.80;;
19087;SDS011;9676;50.916;13.352;2023-03-01T01:16:22;14.47;;;13.07;;
19087;SDS011;9676;50.916;13.352;2023-03-01T01:19:14;14.07;;;12.67;;
19087;SDS011;9676;50.916;13.352;2023-03-01T01:22:06;16.80;;;12.50;;
19087;SDS011;9676;50.916;13.352;2023-03-01T01:24:55;13.80;;;12.33;;
19087;SDS011;9676;50.916;13.352;2023-03-01T01:27:45;15.97;;;13.07;;
19087;SDS011;9676;50.916;13.352;2023-03-01T01:30:34;13.50;;;12.20;;
19087;SDS011;9676;50.916;13.352;2023-03-01T01:33:23;13.60;;;12.20;;
19087;SDS011;9676;50.916;13.352;2023-03-01T01:36:13;13.83;;;12.53;;
19087;SDS011;9676;50.916;13.352;2023-03-01T01:39:04;14.47;;;12.97;;
19087;SDS011;9676;50.916;13.352;2023-03-01T01:41:53;15.47;;;13.67;;
19087;SDS011;9676;50.916;13.352;2023-03-01T01:44:44;13.70;;;12.27;;
19087;SDS011;9676;50.916;13.352;2023-03-01T01:47:35;13.80;;;12.47;;
19087;SDS011;9676;50.916;13.352;2023-03-01T01:50:25;14.43;;;12.93;;
19087;SDS011;9676;50.916;13.352;2023-03-01T01:53:24;13.63;;;12.40;;
19087;SDS011;9676;50.916;13.352;2023-03-01T01:56:17;13.60;;;12.20;;
19087;SDS011;9676;50.916;13.352;2023-03-01T01:59:08;13.27;;;11.97;;
19087;SDS011;9676;50.916;13.352;2023-03-01T02:01:59;13.13;;;11.83;;
19087;SDS011;9676;50.916;13.352;2023-03-01T02:04:52;13.73;;;12.40;;
19087;SDS011;9676;50.916;13.352;2023-03-01T02:07:52;14.60;;;11.93;;
19087;SDS011;9676;50.916;13.352;2023-03-01T02:10:42;13.77;;;12.43;;
19087;SDS011;9676;50.916;13.352;2023-03-01T02:13:32;14.40;;;12.90;;
19087;SDS011;9676;50.916;13.352;2023-03-01T02:16:23;15.87;;;13.10;;
19087;SDS011;9676;50.916;13.352;2023-03-01T02:19:20;14.10;;;12.60;;
19087;SDS011;9676;50.916;13.352;2023-03-01T02:22:24;14.47;;;12.57;;
19087;SDS011;9676;50.916;13.352;2023-03-01T02:25:23;14.80;;;13.20;;
19087;SDS011;9676;50.916;13.352;2023-03-01T02:28:23;13.47;;;12.07;;
19087;SDS011;9676;50.916;13.352;2023-03-01T02:31:19;14.73;;;13.17;;
19087;SDS011;9676;50.916;13.352;2023-03-01T02:34:27;14.07;;;12.67;;
19087;SDS011;9676;50.916;13.352;2023-03-01T02:37:18;13.33;;;12.03;;
19087;SDS011;9676;50.916;13.352;2023-03-01T02:40:13;14.47;;;12.97;;
19087;SDS011;9676;50.916;13.352;2023-03-01T02:43:09;13.87;;;12.53;;
19087;SDS011;9676;50.916;13.352;2023-03-01T02:46:04;13.13;;;11.83;;
19087;SDS011;9676;50.916;13.352;2023-03-01T02:48:55;13.23;;;11.93;;
19087;SDS011;9676;50.916;13.352;2023-03-01T02:51:48;13.53;;;12.13;;
19087;SDS011;9676;50.916;13.352;2023-03-01T02:55:01;12.90;;;11.70;;
19087;SDS011;9676;50.916;13.352;2023-03-01T02:57:54;14.83;;;12.03;;
19087;SDS011;9676;50.916;13.352;2023-03-01T03:00:44;13.00;;;11.70;;
19087;SDS011;9676;50.916;13.352;2023-03-01T03:03:38;13.47;;;12.17;;
19087;SDS011;9676;50.916;13.352;2023-03-01T03:06:28;14.17;;;12.67;;
19087;SDS011;9676;50.916;13.352;2023-03-01T03:09:18;13.17;;;11.80;;
19087;SDS011;9676;50.916;13.352;2023-03-01T03:12:08;12.60;;;11.40;;
19087;SDS011;9676;50.916;13.352;2023-03-01T03:14:57;14.07;;;12.73;;
19087;SDS011;9676;50.916;13.352;2023-03-01T03:17:47;13.00;;;11.70;;
19087;SDS011;9676;50.916;13.352;2023-03-01T03:20:38;13.43;;;12.07;;
19087;SDS011;9676;50.916;13.352;2023-03-01T03:23:29;12.83;;;11.57;;
19087;SDS011;9676;50.916;13.352;2023-03-01T03:26:18;16.50;;;11.60;;
19087;SDS011;9676;50.916;13.352;2023-03-01T03:29:07;13.87;;;12.47;;
19087;SDS011;9676;50.916;13.352;2023-03-01T03:31:57;13.53;;;11.63;;
19087;SDS011;9676;50.916;13.352;2023-03-01T03:34:46;13.00;;;11.80;;
19087;SDS011;9676;50.916;13.352;2023-03-01T03:37:38;12.80;;;11.60;;
19087;SDS011;9676;50.916;13.352;2023-03-01T03:40:47;12.73;;;11.53;;
19087;SDS011;9676;50.916;13.352;2023-03-01T03:43:38;13.10;;;11.80;;
19087;SDS011;9676;50.916;13.352;2023-03-01T03:46:29;13.40;;;12.10;;
19087;SDS011;9676;50.916;13.352;2023-03-01T03:49:20;12.73;;;11.50;;
19087;SDS011;9676;50.916;13.352;2023-03-01T03:52:09;13.07;;;11.70;;
19087;SDS011;9676;50.916;13.352;2023-03-01T03:55:02;12.60;;;11.40;;
19087;SDS011;9676;50.916;13.352;2023-03-01T03:57:57;13.70;;;12.30;;
19087;SDS011;9676;50.916;13.352;2023-03-01T04:00:50;12.00;;;10.90;;
19087;SDS011;9676;50.916;13.352;2023-03-01T04:03:41;13.37;;;11.33;;
19087;SDS011;9676;50.916;13.352;2023-03-01T04:06:33;12.90;;;11.70;;
19087;SDS011;9676;50.916;13.352;2023-03-01T04:09:23;13.47;;;12.07;;
19087;SDS011;9676;50.916;13.352;2023-03-01T04:12:13;13.30;;;11.90;;
19087;SDS011;9676;50.916;13.352;2023-03-01T04:15:08;12.40;;;11.30;;
19087;SDS011;9676;50.916;13.352;2023-03-01T04:18:04;12.63;;;11.43;;
19087;SDS011;9676;50.916;13.352;2023-03-01T04:20:54;13.23;;;12.03;;
19087;SDS011;9676;50.916;13.352;2023-03-01T04:23:43;13.07;;;11.83;;
19087;SDS011;9676;50.916;13.352;2023-03-01T04:26:33;12.40;;;11.10;;
19087;SDS011;9676;50.916;13.352;2023-03-01T04:29:24;12.97;;;11.57;;
19087;SDS011;9676;50.916;13.352;2023-03-01T04:32:13;12.90;;;11.70;;
19087;SDS011;9676;50.916;13.352;2023-03-01T04:35:04;13.30;;;12.00;;
19087;SDS011;9676;50.916;13.352;2023-03-01T04:37:53;13.00;;;11.70;;
19087;SDS011;9676;50.916;13.352;2023-03-01T04:40:42;13.30;;;12.00;;
19087;SDS011;9676;50.916;13.352;2023-03-01T04:43:33;12.73;;;11.43;;
19087;SDS011;9676;50.916;13.352;2023-03-01T04:46:24;13.13;;;11.93;;
19087;SDS011;9676;50.916;13.352;2023-03-01T04:49:14;13.17;;;11.87;;
19087;SDS011;9676;50.916;13.352;2023-03-01T04:52:03;12.27;;;11.17;;
19087;SDS011;9676;50.916;13.352;2023-03-01T04:54:53;12.60;;;11.40;;
19087;SDS011;9676;50.916;13.352;2023-03-01T04:57:43;13.00;;;11.70;;
19087;SDS011;9676;50.916;13.352;2023-03-01T05:00:32;13.83;;;12.30;;
19087;SDS011;9676;50.916;13.352;2023-03-01T05:03:23;14.27;;;11.77;;
19087;SDS011;9676;50.916;13.352;2023-03-01T05:06:13;13.00;;;11.70;;
19087;SDS011;9676;50.916;13.352;2023-03-01T05:09:03;12.20;;;11.00;;
19087;SDS011;9676;50.916;13.352;2023-03-01T05:11:52;13.20;;;11.83;;
19087;SDS011;9676;50.916;13.352;2023-03-01T05:14:41;13.03;;;11.70;;
19087;SDS011;9676;50.916;13.352;2023-03-01T05:17:31;13.40;;;12.00;;
19087;SDS011;9676;50.916;13.352;2023-03-01T05:20:22;12.73;;;11.43;;
19087;SDS011;9676;50.916;13.352;2023-03-01T05:23:11;15.10;;;12.30;;
19087;SDS011;9676;50.916;13.352;2023-03-01T05:26:01;12.90;;;11.50;;
19087;SDS011;9676;50.916;13.352;2023-03-01T05:28:57;13.00;;;11.70;;
19087;SDS011;9676;50.916;13.352;2023-03-01T05:31:47;12.37;;;11.17;;
19087;SDS011;9676;50.916;13.352;2023-03-01T05:34:36;12.90;;;11.60;;
19087;SDS011;9676;50.916;13.352;2023-03-01T05:37:27;13.97;;;12.07;;
19087;SDS011;9676;50.916;13.352;2023-03-01T05:40:17;11.90;;;10.80;;
19087;SDS011;9676;50.916;13.352;2023-03-01T05:43:09;12.40;;;11.20;;
19087;SDS011;9676;50.916;13.352;2023-03-01T05:45:59;12.90;;;11.70;;
19087;SDS011;9676;50.916;13.352;2023-03-01T05:48:48;13.27;;;11.93;;
19087;SDS011;9676;50.916;13.352;2023-03-01T05:51:38;11.93;;;10.83;;
19087;SDS011;9676;50.916;13.352;2023-03-01T05:54:30;13.10;;;11.80;;
19087;SDS011;9676;50.916;13.352;2023-03-01T05:57:20;12.77;;;11.57;;
19087;SDS011;9676;50.916;13.352;2023-03-01T06:00:10;12.67;;;11.43;;
19087;SDS011;9676;50.916;13.352;2023-03-01T06:03:01;13.00;;;11.70;;
19087;SDS011;9676;50.916;13.352;2023-03-01T06:05:55;12.93;;;11.63;;
19087;SDS011;9676;50.916;13.352;2023-03-01T06:08:44;13.30;;;12.10;;
19087;SDS011;9676;50.916;13.352;2023-03-01T06:11:36;12.60;;;11.33;;
19087;SDS011;9676;50.916;13.352;2023-03-01T06:14:25;12.80;;;11.60;;
19087;SDS011;9676;50.916;13.352;2023-03-01T06:17:15;14.00;;;11.50;;
19087;SDS011;9676;50.916;13.352;2023-03-01T06:20:04;13.83;;;12.43;;
19087;SDS011;9676;50.916;13.352;2023-03-01T06:22:56;13.07;;;11.77;;
19087;SDS011;9676;50.916;13.352;2023-03-01T06:25:47;13.70;;;12.40;;
19087;SDS011;9676;50.916;13.352;2023-03-01T06:28:37;14.27;;;12.77;;
19087;SDS011;9676;50.916;13.352;2023-03-01T06:31:27;14.93;;;12.80;;
19087;SDS011;9676;50.916;13.352;2023-03-01T06:34:16;14.30;;;12.80;;
19087;SDS011;9676;50.916;13.352;2023-03-01T06:37:06;16.63;;;13.60;;
19087;SDS011;9676;50.916;13.352;2023-03-01T06:39:56;16.63;;;13.80;;
19087;SDS011;9676;50.916;13.352;2023-03-01T06:42:47;14.33;;;12.83;;
19087;SDS011;9676;50.916;13.352;2023-03-01T06:45:39;14.03;;;12.63;;
19087;SDS011;9676;50.916;13.352;2023-03-01T06:48:30;14.53;;;13.00;;
19087;SDS011;9676;50.916;13.352;2023-03-01T06:51:19;14.57;;;13.17;;
19087;SDS011;9676;50.916;13.352;2023-03-01T06:54:09;14.47;;;12.97;;
19087;SDS011;9676;50.916;13.352;2023-03-01T06:56:58;15.07;;;13.47;;
19087;SDS011;9676;50.916;13.352;2023-03-01T06:59:48;15.00;;;13.40;;
19087;SDS011;9676;50.916;13.352;2023-03-01T07:02:38;14.80;;;13.30;;
19087;SDS011;9676;50.916;13.352;2023-03-01T07:05:28;15.37;;;13.77;;
19087;SDS011;9676;50.916;13.352;2023-03-01T07:08:18;16.57;;;14.10;;
19087;SDS011;9676;50.916;13.352;2023-03-01T07:11:07;15.30;;;13.80;;
19087;SDS011;9676;50.916;13.352;2023-03-01T07:13:58;15.50;;;13.90;;
19087;SDS011;9676;50.916;13.352;2023-03-01T07:16:47;16.03;;;14.33;;
19087;SDS011;9676;50.916;13.352;2023-03-01T07:19:38;16.53;;;13.50;;
19087;SDS011;9676;50.916;13.352;2023-03-01T07:22:28;17.60;;;13.80;;
19087;SDS011;9676;50.916;13.352;2023-03-01T07:25:17;23.90;;;14.33;;
19087;SDS011;9676;50.916;13.352;2023-03-01T07:28:06;16.17;;;14.47;;
19087;SDS011;9676;50.916;13.352;2023-03-01T07:31:00;16.53;;;14.80;;
19087;SDS011;9676;50.916;13.352;2023-03-01T07:33:50;15.90;;;14.20;;
19087;SDS011;9676;50.916;13.352;2023-03-01T07:36:41;15.60;;;14.00;;
19087;SDS011;9676;50.916;13.352;2023-03-01T07:39:32;19.50;;;14.80;;
19087;SDS011;9676;50.916;13.352;2023-03-01T07:42:21;18.63;;;16.17;;
19087;SDS011;9676;50.916;13.352;2023-03-01T07:45:11;17.93;;;15.27;;
19087;SDS011;9676;50.916;13.352;2023-03-01T07:48:01;19.50;;;14.90;;
19087;SDS011;9676;50.916;13.352;2023-03-01T07:50:51;16.57;;;14.80;;
19087;SDS011;9676;50.916;13.352;2023-03-01T07:53:41;16.40;;;14.40;;
19087;SDS011;9676;50.916;13.352;2023-03-01T07:56:34;18.20;;;14.80;;
19087;SDS011;9676;50.916;13.352;2023-03-01T07:59:24;18.23;;;14.90;;
19087;SDS011;9676;50.916;13.352;2023-03-01T08:02:16;16.83;;;14.67;;
19087;SDS011;9676;50.916;13.352;2023-03-01T08:05:06;17.00;;;14.87;;
19087;SDS011;9676;50.916;13.352;2023-03-01T08:07:56;16.23;;;14.53;;
19087;SDS011;9676;50.916;13.352;2023-03-01T08:10:47;18.13;;;15.40;;
19087;SDS011;9676;50.916;13.352;2023-03-01T08:13:36;17.20;;;15.00;;
19087;SDS011;9676;50.916;13.352;2023-03-01T08:16:26;16.90;;;14.97;;
19087;SDS011;9676;50.916;13.352;2023-03-01T08:19:16;16.63;;;14.93;;
19087;SDS011;9676;50.916;13.352;2023-03-01T08:22:05;23.33;;;16.37;;
19087;SDS011;9676;50.916;13.352;2023-03-01T08:24:55;19.00;;;15.87;;
19087;SDS011;9676;50.916;13.352;2023-03-01T08:27:46;20.87;;;16.20;;
19087;SDS011;9676;50.916;13.352;2023-03-01T08:30:35;20.23;;;16.40;;
19087;SDS011;9676;50.916;13.352;2023-03-01T08:33:24;18.97;;;15.90;;
19087;SDS011;9676;50.916;13.352;2023-03-01T08:36:14;24.50;;;15.90;;
19087;SDS011;9676;50.916;13.352;2023-03-01T08:39:04;20.40;;;16.00;;
19087;SDS011;9676;50.916;13.352;2023-03-01T08:41:54;19.13;;;15.80;;
19087;SDS011;9676;50.916;13.352;2023-03-01T08:44:45;19.37;;;16.57;;
19087;SDS011;9676;50.916;13.352;2023-03-01T08:47:34;22.80;;;17.30;;
19087;SDS011;9676;50.916;13.352;2023-03-01T08:50:23;19.07;;;16.17;;
19087;SDS011;9676;50.916;13.352;2023-03-01T08:53:13;18.80;;;15.83;;
19087;SDS011;9676;50.916;13.352;2023-03-01T08:56:02;19.17;;;16.37;;
19087;SDS011;9676;50.916;13.352;2023-03-01T08:58:53;17.70;;;15.80;;
19087;SDS011;9676;50.916;13.352;2023-03-01T09:01:44;20.27;;;16.60;;
19087;SDS011;9676;50.916;13.352;2023-03-01T09:04:33;18.43;;;15.77;;
19087;SDS011;9676;50.916;13.352;2023-03-01T09:07:25;18.50;;;15.97;;
19087;SDS011;9676;50.916;13.352;2023-03-01T09:10:16;19.37;;;16.20;;
19087;SDS011;9676;50.916;13.352;2023-03-01T09:13:06;20.43;;;15.60;;
19087;SDS011;9676;50.916;13.352;2023-03-01T09:15:56;18.50;;;16.13;;
19087;SDS011;9676;50.916;13.352;2023-03-01T09:18:49;18.53;;;15.10;;
19087;SDS011;9676;50.916;13.352;2023-03-01T09:21:40;18.30;;;15.70;;
19087;SDS011;9676;50.916;13.352;2023-03-01T09:24:39;19.37;;;15.53;;
19087;SDS011;9676;50.916;13.352;2023-03-01T09:27:28;21.60;;;16.33;;
19087;SDS011;9676;50.916;13.352;2023-03-01T09:30:18;20.13;;;15.27;;
19087;SDS011;9676;50.916;13.352;2023-03-01T09:33:08;24.60;;;15.70;;
19087;SDS011;9676;50.916;13.352;2023-03-01T09:36:03;18.60;;;16.27;;
19087;SDS011;9676;50.916;13.352;2023-03-01T09:38:57;17.10;;;15.30;;
19087;SDS011;9676;50.916;13.352;2023-03-01T09:41:49;19.63;;;16.40;;
19087;SDS011;9676;50.916;13.352;2023-03-01T09:44:48;18.33;;;15.47;;
19087;SDS011;9676;50.916;13.352;2023-03-01T09:47:41;17.87;;;15.43;;
19087;SDS011;9676;50.916;13.352;2023-03-01T09:50:32;17.97;;;15.60;;
19087;SDS011;9676;50.916;13.352;2023-03-01T09:53:27;18.17;;;16.20;;
19087;SDS011;9676;50.916;13.352;2023-03-01T09:56:24;17.77;;;15.73;;
19087;SDS011;9676;50.916;13.352;2023-03-01T09:59:23;18.77;;;15.73;;
19087;SDS011;9676;50.916;13.352;2023-03-01T10:02:21;17.33;;;15.27;;
19087;SDS011;9676;50.916;13.352;2023-03-01T10:08:45;17.23;;;14.60;;
19087;SDS011;9676;50.916;13.352;2023-03-01T10:11:42;17.23;;;14.43;;
19087;SDS011;9676;50.916;13.352;2023-03-01T10:14:36;16.87;;;15.07;;
19087;SDS011;9676;50.916;13.352;2023-03-01T10:17:30;18.87;;;15.27;;
19087;SDS011;9676;50.916;13.352;2023-03-01T10:20:25;16.83;;;15.03;;
19087;SDS011;9676;50.916;13.352;2023-03-01T10:23:18;18.70;;;15.40;;
19087;SDS011;9676;50.916;13.352;2023-03-01T10:26:15;20.60;;;16.03;;
19087;SDS011;9676;50.916;13.352;2023-03-01T10:29:19;16.77;;;15.00;;
19087;SDS011;9676;50.916;13.352;2023-03-01T10:32:13;16.70;;;14.90;;
19087;SDS011;9676;50.916;13.352;2023-03-01T10:35:14;18.67;;;15.90;;
19087;SDS011;9676;50.916;13.352;2023-03-01T10:38:06;18.53;;;14.70;;
19087;SDS011;9676;50.916;13.352;2023-03-01T10:40:59;15.90;;;13.90;;
19087;SDS011;9676;50.916;13.352;2023-03-01T10:43:56;16.47;;;14.67;;
19087;SDS011;9676;50.916;13.352;2023-03-01T10:46:47;16.97;;;15.17;;
19087;SDS011;9676;50.916;13.352;2023-03-01T10:49:55;15.80;;;14.20;;
19087;SDS011;9676;50.916;13.352;2023-03-01T10:52:57;16.00;;;14.30;;
19087;SDS011;9676;50.916;13.352;2023-03-01T10:55:48;17.10;;;15.07;;
19087;SDS011;9676;50.916;13.352;2023-03-01T10:58:58;19.93;;;15.20;;
19087;SDS011;9676;50.916;13.352;2023-03-01T11:02:00;17.60;;;15.30;;
19087;SDS011;9676;50.916;13.352;2023-03-01T11:05:22;17.23;;;15.30;;
19087;SDS011;9676;50.916;13.352;2023-03-01T11:08:26;20.33;;;14.70;;
19087;SDS011;9676;50.916;13.352;2023-03-01T11:11:24;19.80;;;15.53;;
19087;SDS011;9676;50.916;13.352;2023-03-01T11:14:21;19.93;;;15.33;;
19087;SDS011;9676;50.916;13.352;2023-03-01T11:17:15;17.57;;;15.30;;
19087;SDS011;9676;50.916;13.352;2023-03-01T11:20:17;18.80;;;16.70;;
19087;SDS011;9676;50.916;13.352;2023-03-01T11:23:16;18.40;;;16.50;;
19087;SDS011;9676;50.916;13.352;2023-03-01T11:26:07;19.60;;;16.30;;
19087;SDS011;9676;50.916;13.352;2023-03-01T11:29:00;18.73;;;16.20;;
19087;SDS011;9676;50.916;13.352;2023-03-01T11:31:57;20.37;;;16.90;;
19087;SDS011;9676;50.916;13.352;2023-03-01T11:34:51;19.60;;;16.20;;
19087;SDS011;9676;50.916;13.352;2023-03-01T11:37:49;19.37;;;16.57;;
19087;SDS011;9676;50.916;13.352;2023-03-01T11:40:53;20.10;;;16.00;;
19087;SDS011;9676;50.916;13.352;2023-03-01T11:43:49;20.90;;;17.17;;
19087;SDS011;9676;50.916;13.352;2023-03-01T11:46:49;29.50;;;17.43;;
19087;SDS011;9676;50.916;13.352;2023-03-01T11:50:05;22.20;;;17.20;;
19087;SDS011;9676;50.916;13.352;2023-03-01T11:56:38;21.10;;;16.63;;
19087;SDS011;9676;50.916;13.352;2023-03-01T11:59:47;20.23;;;17.73;;
19087;SDS011;9676;50.916;13.352;2023-03-01T12:03:00;19.03;;;17.03;;
19087;SDS011;9676;50.916;13.352;2023-03-01T12:06:18;21.97;;;17.87;;
19087;SDS011;9676;50.916;13.352;2023-03-01T12:09:22;19.90;;;16.60;;
19087;SDS011;9676;50.916;13.352;2023-03-01T12:12:46;23.50;;;18.63;;
19087;SDS011;9676;50.916;13.352;2023-03-01T12:15:51;22.93;;;18.00;;
19087;SDS011;9676;50.916;13.352;2023-03-01T12:19:00;23.20;;;19.07;;
19087;SDS011;9676;50.916;13.352;2023-03-01T12:22:25;19.97;;;17.13;;
19087;SDS011;9676;50.916;13.352;2023-03-01T12:25:28;20.83;;;17.27;;
19087;SDS011;9676;50.916;13.352;2023-03-01T12:28:37;21.40;;;18.13;;
19087;SDS011;9676;50.916;13.352;2023-03-01T12:35:23;21.70;;;17.90;;
19087;SDS011;9676;50.916;13.352;2023-03-01T12:38:37;20.13;;;17.63;;
19087;SDS011;9676;50.916;13.352;2023-03-01T12:44:50;23.33;;;16.93;;
19087;SDS011;9676;50.916;13.352;2023-03-01T12:48:00;21.50;;;17.23;;
19087;SDS011;9676;50.916;13.352;2023-03-01T12:51:08;22.17;;;17.10;;
19087;SDS011;9676;50.916;13.352;2023-03-01T12:54:05;22.43;;;16.63;;
19087;SDS011;9676;50.916;13.352;2023-03-01T12:57:06;19.20;;;16.90;;
19087;SDS011;9676;50.916;13.352;2023-03-01T13:00:14;19.73;;;16.20;;
19087;SDS011;9676;50.916;13.352;2023-03-01T13:03:18;20.67;;;15.90;;
19087;SDS011;9676;50.916;13.352;2023-03-01T13:06:17;19.70;;;17.60;;
19087;SDS011;9676;50.916;13.352;2023-03-01T13:09:25;20.20;;;16.60;;
19087;SDS011;9676;50.916;13.352;2023-03-01T13:12:44;19.40;;;16.13;;
19087;SDS011;9676;50.916;13.352;2023-03-01T13:15:40;23.00;;;16.93;;
19087;SDS011;9676;50.916;13.352;2023-03-01T13:18:31;22.40;;;17.87;;
19087;SDS011;9676;50.916;13.352;2023-03-01T13:21:30;22.67;;;18.20;;
19087;SDS011;9676;50.916;13.352;2023-03-01T13:24:24;20.70;;;17.80;;
19087;SDS011;9676;50.916;13.352;2023-03-01T13:27:22;21.40;;;17.33;;
19087;SDS011;9676;50.916;13.352;2023-03-01T13:33:37;20.53;;;17.00;;
19087;SDS011;9676;50.916;13.352;2023-03-01T13:36:47;20.57;;;17.13;;
19087;SDS011;9676;50.916;13.352;2023-03-01T13:39:39;18.83;;;16.53;;
19087;SDS011;9676;50.916;13.352;2023-03-01T13:42:37;21.37;;;17.73;;
19087;SDS011;9676;50.916;13.352;2023-03-01T13:45:49;20.40;;;17.70;;
19087;SDS011;9676;50.916;13.352;2023-03-01T13:48:39;21.73;;;17.80;;
19087;SDS011;9676;50.916;13.352;2023-03-01T13:51:29;23.97;;;17.50;;
19087;SDS011;9676;50.916;13.352;2023-03-01T13:54:22;23.50;;;17.37;;
19087;SDS011;9676;50.916;13.352;2023-03-01T13:57:18;18.83;;;15.90;;
19087;SDS011;9676;50.916;13.352;2023-03-01T14:00:27;20.17;;;16.53;;
19087;SDS011;9676;50.916;13.352;2023-03-01T14:03:20;18.60;;;15.83;;
19087;SDS011;9676;50.916;13.352;2023-03-01T14:06:12;17.00;;;14.83;;
19087;SDS011;9676;50.916;13.352;2023-03-01T14:09:10;16.90;;;14.57;;
19087;SDS011;9676;50.916;13.352;2023-03-01T14:12:18;16.90;;;14.50;;
19087;SDS011;9676;50.916;13.352;2023-03-01T14:15:18;17.40;;;14.17;;
19087;SDS011;9676;50.916;13.352;2023-03-01T14:18:14;16.23;;;14.30;;
19087;SDS011;9676;50.916;13.352;2023-03-01T14:21:08;18.30;;;14.60;;
19087;SDS011;9676;50.916;13.352;2023-03-01T14:24:02;16.87;;;14.60;;
19087;SDS011;9676;50.916;13.352;2023-03-01T14:26:53;16.60;;;14.90;;
19087;SDS011;9676;50.916;13.352;2023-03-01T14:29:47;16.67;;;14.87;;
19087;SDS011;9676;50.916;13.352;2023-03-01T14:32:51;16.37;;;14.63;;
19087;SDS011;9676;50.916;13.352;2023-03-01T14:35:42;16.90;;;13.87;;
19087;SDS011;9676;50.916;13.352;2023-03-01T14:38:46;15.50;;;13.90;;
19087;SDS011;9676;50.916;13.352;2023-03-01T14:41:36;19.00;;;14.13;;
19087;SDS011;9676;50.916;13.352;2023-03-01T14:44:25;17.13;;;14.70;;
19087;SDS011;9676;50.916;13.352;2023-03-01T14:47:22;17.03;;;14.70;;
19087;SDS011;9676;50.916;13.352;2023-03-01T14:50:20;16.10;;;13.60;;
19087;SDS011;9676;50.916;13.352;2023-03-01T14:53:16;15.53;;;13.83;;
19087;SDS011;9676;50.916;13.352;2023-03-01T14:56:12;16.43;;;14.67;;
19087;SDS011;9676;50.916;13.352;2023-03-01T14:59:04;18.10;;;15.30;;
19087;SDS011;9676;50.916;13.352;2023-03-01T15:01:57;22.63;;;15.67;;
19087;SDS011;9676;50.916;13.352;2023-03-01T15:04:50;17.10;;;15.30;;
19087;SDS011;9676;50.916;13.352;2023-03-01T15:07:44;20.57;;;16.20;;
19087;SDS011;9676;50.916;13.352;2023-03-01T15:10:36;19.87;;;15.77;;
19087;SDS011;9676;50.916;13.352;2023-03-01T15:13:28;20.30;;;17.00;;
19087;SDS011;9676;50.916;13.352;2023-03-01T15:16:20;18.87;;;15.87;;
19087;SDS011;9676;50.916;13.352;2023-03-01T15:19:15;19.57;;;16.20;;
19087;SDS011;9676;50.916;13.352;2023-03-01T15:22:13;20.17;;;16.17;;
19087;SDS011;9676;50.916;13.352;2023-03-01T15:25:05;21.70;;;16.00;;
19087;SDS011;9676;50.916;13.352;2023-03-01T15:28:03;18.50;;;16.30;;
19087;SDS011;9676;50.916;13.352;2023-03-01T15:30:53;19.53;;;17.07;;
19087;SDS011;9676;50.916;13.352;2023-03-01T15:33:46;18.53;;;15.90;;
19087;SDS011;9676;50.916;13.352;2023-03-01T15:36:41;19.43;;;16.20;;
19087;SDS011;9676;50.916;13.352;2023-03-01T15:39:39;21.37;;;15.93;;
19087;SDS011;9676;50.916;13.352;2023-03-01T15:42:37;17.70;;;15.50;;
19087;SDS011;9676;50.916;13.352;2023-03-01T15:45:28;16.70;;;14.73;;
19087;SDS011;9676;50.916;13.352;2023-03-01T15:48:21;15.83;;;13.97;;
19087;SDS011;9676;50.916;13.352;2023-03-01T15:51:13;17.37;;;14.50;;
19087;SDS011;9676;50.916;13.352;2023-03-01T15:54:04;16.47;;;13.87;;
19087;SDS011;9676;50.916;13.352;2023-03-01T15:57:01;15.93;;;13.83;;
19087;SDS011;9676;50.916;13.352;2023-03-01T15:59:51;16.30;;;14.60;;
19087;SDS011;9676;50.916;13.352;2023-03-01T16:02:41;15.90;;;14.20;;
19087;SDS011;9676;50.916;13.352;2023-03-01T16:05:32;15.10;;;13.63;;
19087;SDS011;9676;50.916;13.352;2023-03-01T16:08:23;16.60;;;14.47;;
19087;SDS011;9676;50.916;13.352;2023-03-01T16:11:14;16.10;;;14.40;;
19087;SDS011;9676;50.916;13.352;2023-03-01T16:14:08;17.90;;;15.60;;
19087;SDS011;9676;50.916;13.352;2023-03-01T16:16:58;20.03;;;15.80;;
19087;SDS011;9676;50.916;13.352;2023-03-01T16:19:47;21.73;;;15.13;;
19087;SDS011;9676;50.916;13.352;2023-03-01T16:22:37;16.53;;;14.17;;
19087;SDS011;9676;50.916;13.352;2023-03-01T16:25:29;17.87;;;14.37;;
19087;SDS011;9676;50.916;13.352;2023-03-01T16:28:20;18.13;;;15.00;;
19087;SDS011;9676;50.916;13.352;2023-03-01T16:31:11;17.50;;;14.60;;
19087;SDS011;9676;50.916;13.352;2023-03-01T16:34:07;20.13;;;15.60;;
19087;SDS011;9676;50.916;13.352;2023-03-01T16:36:57;18.50;;;15.20;;
19087;SDS011;9676;50.916;13.352;2023-03-01T16:39:46;18.80;;;16.17;;
19087;SDS011;9676;50.916;13.352;2023-03-01T16:42:37;20.53;;;15.97;;
19087;SDS011;9676;50.916;13.352;2023-03-01T16:45:28;18.60;;;16.07;;
19087;SDS011;9676;50.916;13.352;2023-03-01T16:48:25;17.93;;;15.43;;
19087;SDS011;9676;50.916;13.352;2023-03-01T16:51:14;18.00;;;14.77;;
19087;SDS011;9676;50.916;13.352;2023-03-01T16:54:04;18.63;;;14.93;;
19087;SDS011;9676;50.916;13.352;2023-03-01T16:56:55;15.50;;;13.77;;
19087;SDS011;9676;50.916;13.352;2023-03-01T16:59:45;16.70;;;14.23;;
19087;SDS011;9676;50.916;13.352;2023-03-01T17:02:34;17.53;;;14.27;;
19087;SDS011;9676;50.916;13.352;2023-03-01T17:05:25;14.93;;;13.30;;
19087;SDS011;9676;50.916;13.352;2023-03-01T17:08:15;16.60;;;14.20;;
19087;SDS011;9676;50.916;13.352;2023-03-01T17:11:05;17.20;;;14.10;;
19087;SDS011;9676;50.916;13.352;2023-03-01T17:13:56;14.33;;;12.83;;